EST,Max TemperatureF,Mean TemperatureF,Min TemperatureF,Max Dew PointF,MeanDew PointF,Min DewpointF,Max Humidity, Mean Humidity, Min Humidity, Max Sea Level PressureIn, Mean Sea Level PressureIn, Min Sea Level PressureIn, Max VisibilityMiles, Mean VisibilityMiles, Min VisibilityMiles, Max Wind SpeedMPH, Mean Wind SpeedMPH, Max Gust SpeedMPH,PrecipitationIn, CloudCover, Events, WindDirDegrees
2013-2-1,15,9,3,4,-2,-6,70,63,56,29.95,29.65,29.33,,,,10,6,25,0.00,,,293
2013-2-2,14,6,-2,6,-4,-10,77,62,45,30.11,30.04,29.94,,,,14,7,28,0.00,,,301
2013-2-3,21,12,3,7,5,1,92,74,51,30.02,29.89,29.67,,,,8,3,,0.00,,,13
2013-2-4,16,8,1,8,1,-10,92,70,51,29.73,29.60,29.52,,,,13,7,24,0.00,,,309
2013-2-5,9,2,-5,-7,-12,-16,63,53,38,29.99,29.91,29.75,,,,9,6,18,0.00,,,329
2013-2-6,24,14,1,15,1,-9,81,64,46,30.19,29.97,29.85,,,,12,5,24,0.00,,,184
2013-2-7,3,-3,-9,-10,-18,-21,68,50,31,30.55,30.43,30.20,,,,17,10,28,0.00,,,327
2013-2-8,7,1,-5,2,-6,-17,83,72,51,30.54,30.40,30.10,,,,15,4,23,0.08,,,91
2013-2-9,9,5,1,4,1,-3,84,81,73,30.11,29.99,29.90,,,,30,18,39,0.38,,,347
2013-2-10,24,14,3,2,-1,-5,73,54,32,30.34,30.26,30.13,,,,23,14,33,0.00,,,334
2013-2-11,28,19,10,29,12,-5,100,73,37,30.29,29.94,29.54,,,,9,3,,0.21,,,138
2013-2-12,34,31,28,30,27,25,100,86,75,29.66,29.52,29.46,,,,12,5,26,0.06,,,312
2013-2-13,32,25,18,23,19,15,89,73,61,29.75,29.71,29.66,,,,13,6,24,0.00,,,328
2013-2-14,32,26,19,19,17,12,92,70,44,29.95,29.84,29.73,,,,13,4,18,0.00,,,337
2013-2-15,36,28,21,26,21,14,92,74,62,29.94,29.90,29.85,,,,7,2,,0.00,,,127
2013-2-16,27,22,15,21,16,8,89,75,62,29.94,29.89,29.81,,,,14,7,29,0.03,,,341
2013-2-17,14,11,7,11,7,0,88,81,71,29.79,29.39,29.15,,,,32,17,48,0.21,,,325
2013-2-18,16,8,1,2,-2,-5,76,62,51,29.92,29.64,29.34,,,,28,16,43,0.00,,,306
2013-2-19,37,22,7,32,6,-2,100,53,24,30.06,29.92,29.63,,,,18,11,34,0.08,,,46
2013-2-20,37,28,19,36,24,15,100,90,81,29.57,29.44,29.33,,,,21,9,33,1.40,,,110
2013-2-21,27,18,10,23,14,5,96,84,77,30.17,29.80,29.55,,,,22,11,36,0.09,,,327
2013-2-22,25,20,15,19,16,12,92,83,74,30.38,30.32,30.19,,,,15,9,22,0.00,,,348
2013-2-23,25,21,17,24,20,14,96,93,88,30.32,30.18,30.02,,,,9,4,,0.22,,,134
2013-2-24,25,23,21,23,21,17,96,91,78,30.00,29.89,29.81,,,,10,6,18,0.14,,,101
2013-2-25,30,26,21,23,21,16,92,79,58,30.21,30.07,29.90,,,,12,7,18,0.00,,,341
2013-2-26,36,30,23,24,22,19,92,74,50,30.32,30.28,30.22,,,,8,3,,0.00,,,31
2013-2-27,35,28,21,25,20,14,92,73,52,30.24,30.05,29.78,,,,18,8,29,0.08,,,107
2013-2-28,30,28,25,28,25,22,96,91,84,29.74,29.64,29.56,,,,22,16,37,0.19,,,87